sensor_id;sensor_type;location;lat;lon;timestamp;P1;durP1;ratioP1;P2;durP2;ratioP2
1010;SDS011;494;48.744;10.106;2022-07-30T19:52:36;15.77;;;9.00;;
1010;SDS011;494;48.744;10.106;2022-07-30T19:55:17;14.87;;;8.20;;
1010;SDS011;494;48.744;10.106;2022-07-30T19:58:00;14.60;;;8.50;;
1010;SDS011;494;48.744;10.106;2022-07-30T20:00:42;15.53;;;8.93;;
1010;SDS011;494;48.744;10.106;2022-07-30T20:03:18;14.80;;;8.40;;
1010;SDS011;494;48.744;10.106;2022-07-30T20:05:54;15.53;;;8.70;;
1010;SDS011;494;48.744;10.106;2022-07-30T20:08:26;17.40;;;8.60;;
1010;SDS011;494;48.744;10.106;2022-07-30T20:10:55;13.70;;;8.30;;
1010;SDS011;494;48.744;10.106;2022-07-30T20:13:24;15.03;;;8.60;;
1010;SDS011;494;48.744;10.106;2022-07-30T20:16:11;14.70;;;8.83;;
1010;SDS011;494;48.744;10.106;2022-07-30T20:18:41;16.03;;;8.60;;
1010;SDS011;494;48.744;10.106;2022-07-30T20:21:12;19.63;;;8.37;;
1010;SDS011;494;48.744;10.106;2022-07-30T20:23:43;14.80;;;8.60;;
1010;SDS011;494;48.744;10.106;2022-07-30T20:26:12;15.00;;;8.50;;
1010;SDS011;494;48.744;10.106;2022-07-30T20:28:44;14.07;;;8.70;;
1010;SDS011;494;48.744;10.106;2022-07-30T20:31:18;16.47;;;8.77;;
1010;SDS011;494;48.744;10.106;2022-07-30T20:33:47;16.37;;;9.00;;
1010;SDS011;494;48.744;10.106;2022-07-30T20:36:16;14.20;;;8.77;;
1010;SDS011;494;48.744;10.106;2022-07-30T20:38:48;15.20;;;9.20;;
1010;SDS011;494;48.744;10.106;2022-07-30T20:41:17;15.80;;;8.80;;
1010;SDS011;494;48.744;10.106;2022-07-30T20:43:45;15.83;;;8.90;;
1010;SDS011;494;48.744;10.106;2022-07-30T20:46:20;17.03;;;8.97;;
1010;SDS011;494;48.744;10.106;2022-07-30T20:48:49;16.63;;;9.33;;
1010;SDS011;494;48.744;10.106;2022-07-30T20:51:18;17.67;;;9.93;;
1010;SDS011;494;48.744;10.106;2022-07-30T20:54:00;15.47;;;9.87;;
1010;SDS011;494;48.744;10.106;2022-07-30T20:56:29;14.93;;;9.20;;
1010;SDS011;494;48.744;10.106;2022-07-30T20:58:57;16.80;;;9.53;;
1010;SDS011;494;48.744;10.106;2022-07-30T21:01:26;15.70;;;9.60;;
1010;SDS011;494;48.744;10.106;2022-07-30T21:03:56;14.93;;;9.17;;
1010;SDS011;494;48.744;10.106;2022-07-30T21:06:24;17.53;;;9.93;;
1010;SDS011;494;48.744;10.106;2022-07-30T21:08:53;14.87;;;9.53;;
1010;SDS011;494;48.744;10.106;2022-07-30T21:11:24;14.40;;;8.90;;
1010;SDS011;494;48.744;10.106;2022-07-30T21:13:53;17.33;;;9.33;;
1010;SDS011;494;48.744;10.106;2022-07-30T21:16:21;15.80;;;9.47;;
1010;SDS011;494;48.744;10.106;2022-07-30T21:18:56;14.90;;;9.33;;
1010;SDS011;494;48.744;10.106;2022-07-30T21:21:24;17.70;;;9.43;;
1010;SDS011;494;48.744;10.106;2022-07-30T21:24:07;18.40;;;9.60;;
1010;SDS011;494;48.744;10.106;2022-07-30T21:26:44;15.90;;;9.90;;
1010;SDS011;494;48.744;10.106;2022-07-30T21:29:15;17.53;;;9.90;;
1010;SDS011;494;48.744;10.106;2022-07-30T21:31:46;17.23;;;10.20;;
1010;SDS011;494;48.744;10.106;2022-07-30T21:34:28;17.57;;;9.73;;
1010;SDS011;494;48.744;10.106;2022-07-30T21:37:07;16.20;;;9.50;;
1010;SDS011;494;48.744;10.106;2022-07-30T21:39:40;17.47;;;9.60;;
1010;SDS011;494;48.744;10.106;2022-07-30T21:42:10;20.30;;;12.23;;
1010;SDS011;494;48.744;10.106;2022-07-30T21:44:39;15.27;;;9.83;;
1010;SDS011;494;48.744;10.106;2022-07-30T21:47:07;17.83;;;10.30;;
1010;SDS011;494;48.744;10.106;2022-07-30T21:49:36;15.80;;;10.00;;
1010;SDS011;494;48.744;10.106;2022-07-30T21:52:08;15.83;;;10.60;;
1010;SDS011;494;48.744;10.106;2022-07-30T21:54:36;15.17;;;9.93;;
1010;SDS011;494;48.744;10.106;2022-07-30T21:57:15;17.80;;;10.03;;
1010;SDS011;494;48.744;10.106;2022-07-30T22:00:06;17.07;;;9.80;;
1010;SDS011;494;48.744;10.106;2022-07-30T22:02:41;16.13;;;12.60;;
1010;SDS011;494;48.744;10.106;2022-07-30T22:05:19;16.50;;;12.47;;
1010;SDS011;494;48.744;10.106;2022-07-30T22:08:03;15.90;;;10.70;;
1010;SDS011;494;48.744;10.106;2022-07-30T22:10:35;16.63;;;12.80;;
1010;SDS011;494;48.744;10.106;2022-07-30T22:13:08;16.23;;;12.37;;
1010;SDS011;494;48.744;10.106;2022-07-30T22:15:38;18.50;;;13.13;;
1010;SDS011;494;48.744;10.106;2022-07-30T22:18:10;16.60;;;12.67;;
1010;SDS011;494;48.744;10.106;2022-07-30T22:20:46;18.27;;;13.33;;
1010;SDS011;494;48.744;10.106;2022-07-30T22:23:19;18.10;;;12.57;;
1010;SDS011;494;48.744;10.106;2022-07-30T22:25:48;16.23;;;13.33;;
1010;SDS011;494;48.744;10.106;2022-07-30T22:28:27;17.57;;;13.77;;
1010;SDS011;494;48.744;10.106;2022-07-30T22:30:57;17.63;;;13.77;;
1010;SDS011;494;48.744;10.106;2022-07-30T22:33:30;16.33;;;13.20;;
1010;SDS011;494;48.744;10.106;2022-07-30T22:35:59;17.53;;;11.80;;
1010;SDS011;494;48.744;10.106;2022-07-30T22:38:29;18.37;;;13.10;;
1010;SDS011;494;48.744;10.106;2022-07-30T22:40:59;15.77;;;10.13;;
1010;SDS011;494;48.744;10.106;2022-07-30T22:43:29;17.30;;;10.40;;
1010;SDS011;494;48.744;10.106;2022-07-30T22:46:06;18.23;;;10.10;;
1010;SDS011;494;48.744;10.106;2022-07-30T22:48:55;15.30;;;9.80;;
1010;SDS011;494;48.744;10.106;2022-07-30T22:51:25;16.40;;;10.27;;
1010;SDS011;494;48.744;10.106;2022-07-30T22:54:13;16.73;;;10.90;;
1010;SDS011;494;48.744;10.106;2022-07-30T22:56:44;16.40;;;11.23;;
1010;SDS011;494;48.744;10.106;2022-07-30T22:59:14;17.50;;;11.30;;
1010;SDS011;494;48.744;10.106;2022-07-30T23:02:03;16.43;;;12.23;;
1010;SDS011;494;48.744;10.106;2022-07-30T23:04:37;21.17;;;13.80;;
1010;SDS011;494;48.744;10.106;2022-07-30T23:07:08;16.60;;;12.80;;
1010;SDS011;494;48.744;10.106;2022-07-30T23:09:44;16.57;;;11.77;;
1010;SDS011;494;48.744;10.106;2022-07-30T23:12:17;17.50;;;12.80;;
1010;SDS011;494;48.744;10.106;2022-07-30T23:14:47;17.67;;;11.37;;
1010;SDS011;494;48.744;10.106;2022-07-30T23:17:16;16.40;;;11.40;;
1010;SDS011;494;48.744;10.106;2022-07-30T23:19:44;16.97;;;12.03;;
1010;SDS011;494;48.744;10.106;2022-07-30T23:22:13;16.33;;;11.40;;
1010;SDS011;494;48.744;10.106;2022-07-30T23:24:41;17.63;;;11.53;;
1010;SDS011;494;48.744;10.106;2022-07-30T23:27:10;18.03;;;11.90;;
1010;SDS011;494;48.744;10.106;2022-07-30T23:29:38;17.23;;;12.20;;
1010;SDS011;494;48.744;10.106;2022-07-30T23:32:08;17.03;;;12.27;;
1010;SDS011;494;48.744;10.106;2022-07-30T23:34:37;19.03;;;11.90;;
1010;SDS011;494;48.744;10.106;2022-07-30T23:37:05;19.50;;;12.00;;
1010;SDS011;494;48.744;10.106;2022-07-30T23:39:39;16.30;;;11.47;;
1010;SDS011;494;48.744;10.106;2022-07-30T23:42:08;16.23;;;11.07;;
1010;SDS011;494;48.744;10.106;2022-07-30T23:44:37;16.20;;;11.53;;
1010;SDS011;494;48.744;10.106;2022-07-30T23:47:05;17.07;;;11.70;;
1010;SDS011;494;48.744;10.106;2022-07-30T23:49:35;16.33;;;11.47;;
1010;SDS011;494;48.744;10.106;2022-07-30T23:52:04;17.60;;;10.97;;
1010;SDS011;494;48.744;10.106;2022-07-30T23:54:32;15.83;;;11.43;;
1010;SDS011;494;48.744;10.106;2022-07-30T23:57:02;17.43;;;10.97;;
1010;SDS011;494;48.744;10.106;2022-07-30T23:59:31;16.90;;;10.80;;
